sensor_id;sensor_type;location;lat;lon;timestamp;pressure;altitude;pressure_sealevel;temperature;humidity
69411;BME280;56604;48.652;9.194;2023-12-29T00:02:03;96269.44;;;8.33;93.54
69411;BME280;56604;48.652;9.194;2023-12-29T00:04:29;96263.19;;;8.34;94.18
69411;BME280;56604;48.652;9.194;2023-12-29T00:06:55;96274.56;;;8.40;93.77
69411;BME280;56604;48.652;9.194;2023-12-29T00:09:21;96254.41;;;8.40;93.11
69411;BME280;56604;48.652;9.194;2023-12-29T00:11:50;96253.47;;;8.46;93.23
69411;BME280;56604;48.652;9.194;2023-12-29T00:14:15;96265.22;;;8.44;92.89
69411;BME280;56604;48.652;9.194;2023-12-29T00:16:41;96253.47;;;8.46;92.79
69411;BME280;56604;48.652;9.194;2023-12-29T00:19:07;96263.94;;;8.46;92.62
69411;BME280;56604;48.652;9.194;2023-12-29T00:21:32;96259.28;;;8.48;92.02
69411;BME280;56604;48.652;9.194;2023-12-29T00:23:58;96260.28;;;8.47;91.64
69411;BME280;56604;48.652;9.194;2023-12-29T00:26:23;96261.22;;;8.41;92.03
69411;BME280;56604;48.652;9.194;2023-12-29T00:28:48;96251.19;;;8.38;91.58
69411;BME280;56604;48.652;9.194;2023-12-29T00:31:14;96249.16;;;8.40;92.71
69411;BME280;56604;48.652;9.194;2023-12-29T00:33:43;96244.56;;;8.47;91.27
69411;BME280;56604;48.652;9.194;2023-12-29T00:36:15;96250.16;;;8.51;90.61
69411;BME280;56604;48.652;9.194;2023-12-29T00:38:41;96243.63;;;8.53;89.86
69411;BME280;56604;48.652;9.194;2023-12-29T00:41:06;96243.63;;;8.53;89.72
69411;BME280;56604;48.652;9.194;2023-12-29T00:43:32;96249.69;;;8.54;90.12
69411;BME280;56604;48.652;9.194;2023-12-29T00:45:57;96248.75;;;8.60;89.15
69411;BME280;56604;48.652;9.194;2023-12-29T00:48:22;96242.72;;;8.60;89.73
69411;BME280;56604;48.652;9.194;2023-12-29T00:50:48;96253.19;;;8.60;89.91
69411;BME280;56604;48.652;9.194;2023-12-29T00:53:13;96242.72;;;8.60;89.59
69411;BME280;56604;48.652;9.194;2023-12-29T00:55:40;96245.69;;;8.51;89.52
69411;BME280;56604;48.652;9.194;2023-12-29T00:58:05;96238.38;;;8.53;89.17
69411;BME280;56604;48.652;9.194;2023-12-29T01:00:30;96243.88;;;8.52;89.53
69411;BME280;56604;48.652;9.194;2023-12-29T01:02:55;96252.53;;;8.52;89.51
69411;BME280;56604;48.652;9.194;2023-12-29T01:05:21;96254.41;;;8.40;90.03
69411;BME280;56604;48.652;9.194;2023-12-29T01:07:47;96256.44;;;8.38;90.41
69411;BME280;56604;48.652;9.194;2023-12-29T01:10:12;96259.28;;;8.37;90.84
69411;BME280;56604;48.652;9.194;2023-12-29T01:12:37;96252.81;;;8.39;90.71
69411;BME280;56604;48.652;9.194;2023-12-29T01:15:03;96257.13;;;8.45;89.67
69411;BME280;56604;48.652;9.194;2023-12-29T01:17:28;96269.19;;;8.46;90.19
69411;BME280;56604;48.652;9.194;2023-12-29T01:19:54;96255.63;;;8.49;89.23
69411;BME280;56604;48.652;9.194;2023-12-29T01:22:19;96259.69;;;8.57;88.61
69411;BME280;56604;48.652;9.194;2023-12-29T01:24:44;96261.19;;;8.53;88.45
69411;BME280;56604;48.652;9.194;2023-12-29T01:27:10;96259.81;;;8.50;88.37
69411;BME280;56604;48.652;9.194;2023-12-29T01:29:35;96260.38;;;8.52;89.34
69411;BME280;56604;48.652;9.194;2023-12-29T01:32:00;96269.03;;;8.53;89.35
69411;BME280;56604;48.652;9.194;2023-12-29T01:34:29;96262.53;;;8.55;88.05
69411;BME280;56604;48.652;9.194;2023-12-29T01:36:59;96267.66;;;8.50;89.12
69411;BME280;56604;48.652;9.194;2023-12-29T01:39:24;96271.75;;;8.58;89.43
69411;BME280;56604;48.652;9.194;2023-12-29T01:41:50;96273.00;;;8.55;88.93
69411;BME280;56604;48.652;9.194;2023-12-29T01:44:22;96274.69;;;8.62;88.59
69411;BME280;56604;48.652;9.194;2023-12-29T01:46:51;96272.53;;;8.59;87.93
69411;BME280;56604;48.652;9.194;2023-12-29T01:49:18;96270.50;;;8.61;87.85
69411;BME280;56604;48.652;9.194;2023-12-29T01:51:44;96270.97;;;8.58;88.68
69411;BME280;56604;48.652;9.194;2023-12-29T01:54:10;96240.00;;;8.54;88.07
69411;BME280;56604;48.652;9.194;2023-12-29T01:56:37;96255.72;;;8.54;89.11
69411;BME280;56604;48.652;9.194;2023-12-29T01:59:03;96244.19;;;8.55;87.97
69411;BME280;56604;48.652;9.194;2023-12-29T02:01:29;96245.69;;;8.51;88.47
69411;BME280;56604;48.652;9.194;2023-12-29T02:03:54;96252.22;;;8.49;88.86
69411;BME280;56604;48.652;9.194;2023-12-29T02:06:21;96244.38;;;8.37;89.06
69411;BME280;56604;48.652;9.194;2023-12-29T02:08:47;96247.56;;;8.39;90.46
69411;BME280;56604;48.652;9.194;2023-12-29T02:11:13;96245.28;;;8.31;90.03
69411;BME280;56604;48.652;9.194;2023-12-29T02:13:38;96249.41;;;8.27;90.37
69411;BME280;56604;48.652;9.194;2023-12-29T02:16:10;96254.50;;;8.33;90.32
69411;BME280;56604;48.652;9.194;2023-12-29T02:18:38;96244.84;;;8.34;90.49
69411;BME280;56604;48.652;9.194;2023-12-29T02:21:05;96243.94;;;8.40;89.75
69411;BME280;56604;48.652;9.194;2023-12-29T02:23:30;96241.06;;;8.42;89.97
69411;BME280;56604;48.652;9.194;2023-12-29T02:26:02;96236.63;;;8.42;90.07
69411;BME280;56604;48.652;9.194;2023-12-29T02:28:34;96237.75;;;8.46;91.05
69411;BME280;56604;48.652;9.194;2023-12-29T02:31:06;96225.22;;;8.48;90.71
69411;BME280;56604;48.652;9.194;2023-12-29T02:33:36;96228.84;;;8.47;91.26
69411;BME280;56604;48.652;9.194;2023-12-29T02:36:03;96223.47;;;8.54;91.72
69411;BME280;56604;48.652;9.194;2023-12-29T02:38:29;96227.28;;;8.46;92.24
69411;BME280;56604;48.652;9.194;2023-12-29T02:40:57;96230.38;;;8.43;93.26
69411;BME280;56604;48.652;9.194;2023-12-29T02:43:23;96227.75;;;8.43;93.73
69411;BME280;56604;48.652;9.194;2023-12-29T02:45:48;96225.00;;;8.38;94.22
69411;BME280;56604;48.652;9.194;2023-12-29T02:48:14;96238.91;;;8.39;95.67
69411;BME280;56604;48.652;9.194;2023-12-29T02:50:39;96212.50;;;8.40;95.26
69411;BME280;56604;48.652;9.194;2023-12-29T02:53:05;96226.81;;;8.38;96.04
69411;BME280;56604;48.652;9.194;2023-12-29T02:55:30;96214.19;;;8.34;95.98
69411;BME280;56604;48.652;9.194;2023-12-29T02:57:56;96205.66;;;8.39;96.22
69411;BME280;56604;48.652;9.194;2023-12-29T03:00:21;96214.66;;;8.43;96.65
69411;BME280;56604;48.652;9.194;2023-12-29T03:02:46;96205.06;;;8.49;95.72
69411;BME280;56604;48.652;9.194;2023-12-29T03:05:12;96208.19;;;8.34;96.37
69411;BME280;56604;48.652;9.194;2023-12-29T03:07:37;96205.13;;;8.25;96.83
69411;BME280;56604;48.652;9.194;2023-12-29T03:10:03;96200.59;;;8.21;98.41
69411;BME280;56604;48.652;9.194;2023-12-29T03:12:28;96204.31;;;8.25;97.75
69411;BME280;56604;48.652;9.194;2023-12-29T03:14:55;96198.53;;;8.23;97.77
69411;BME280;56604;48.652;9.194;2023-12-29T03:17:21;96200.13;;;8.24;98.26
69411;BME280;56604;48.652;9.194;2023-12-29T03:19:46;96194.78;;;8.19;97.78
69411;BME280;56604;48.652;9.194;2023-12-29T03:22:11;96197.97;;;8.21;98.34
69411;BME280;56604;48.652;9.194;2023-12-29T03:24:37;96198.28;;;8.24;98.33
69411;BME280;56604;48.652;9.194;2023-12-29T03:27:02;96200.69;;;8.26;98.00
69411;BME280;56604;48.652;9.194;2023-12-29T03:29:27;96189.75;;;8.29;97.72
69411;BME280;56604;48.652;9.194;2023-12-29T03:31:53;96182.00;;;8.22;98.23
69411;BME280;56604;48.652;9.194;2023-12-29T03:34:18;96181.13;;;8.17;98.76
69411;BME280;56604;48.652;9.194;2023-12-29T03:36:45;96182.69;;;8.29;99.00
69411;BME280;56604;48.652;9.194;2023-12-29T03:39:10;96198.63;;;8.28;98.65
69411;BME280;56604;48.652;9.194;2023-12-29T03:41:35;96185.63;;;8.33;98.79
69411;BME280;56604;48.652;9.194;2023-12-29T03:44:01;96186.09;;;8.30;98.93
69411;BME280;56604;48.652;9.194;2023-12-29T03:46:26;96189.09;;;8.22;99.34
69411;BME280;56604;48.652;9.194;2023-12-29T03:48:51;96185.25;;;8.13;100.00
69411;BME280;56604;48.652;9.194;2023-12-29T03:51:18;96184.78;;;8.16;100.00
69411;BME280;56604;48.652;9.194;2023-12-29T03:53:44;96175.56;;;8.13;99.25
69411;BME280;56604;48.652;9.194;2023-12-29T03:56:14;96178.72;;;7.98;100.00
69411;BME280;56604;48.652;9.194;2023-12-29T03:58:39;96175.81;;;7.83;100.00
69411;BME280;56604;48.652;9.194;2023-12-29T04:01:09;96186.53;;;7.70;100.00
69411;BME280;56604;48.652;9.194;2023-12-29T04:03:35;96176.44;;;7.61;100.00
69411;BME280;56604;48.652;9.194;2023-12-29T04:06:01;96184.41;;;7.55;100.00
69411;BME280;56604;48.652;9.194;2023-12-29T04:08:27;96182.50;;;7.50;100.00
69411;BME280;56604;48.652;9.194;2023-12-29T04:10:53;96184.34;;;7.38;100.00
69411;BME280;56604;48.652;9.194;2023-12-29T04:13:18;96182.19;;;7.35;100.00
69411;BME280;56604;48.652;9.194;2023-12-29T04:15:43;96179.75;;;7.45;100.00
69411;BME280;56604;48.652;9.194;2023-12-29T04:18:09;96184.06;;;7.51;100.00
69411;BME280;56604;48.652;9.194;2023-12-29T04:20:34;96178.41;;;7.54;100.00
69411;BME280;56604;48.652;9.194;2023-12-29T04:22:59;96176.00;;;7.53;100.00
69411;BME280;56604;48.652;9.194;2023-12-29T04:25:24;96172.94;;;7.44;100.00
69411;BME280;56604;48.652;9.194;2023-12-29T04:27:50;96186.38;;;7.36;100.00
69411;BME280;56604;48.652;9.194;2023-12-29T04:30:15;96182.50;;;7.38;100.00
69411;BME280;56604;48.652;9.194;2023-12-29T04:32:40;96182.94;;;7.47;100.00
69411;BME280;56604;48.652;9.194;2023-12-29T04:35:06;96183.97;;;7.58;100.00
69411;BME280;56604;48.652;9.194;2023-12-29T04:37:31;96191.56;;;7.59;100.00
69411;BME280;56604;48.652;9.194;2023-12-29T04:39:57;96184.84;;;7.63;100.00
69411;BME280;56604;48.652;9.194;2023-12-29T04:42:22;96188.59;;;7.68;100.00
69411;BME280;56604;48.652;9.194;2023-12-29T04:44:47;96177.53;;;7.77;100.00
69411;BME280;56604;48.652;9.194;2023-12-29T04:47:13;96183.56;;;7.78;100.00
69411;BME280;56604;48.652;9.194;2023-12-29T04:49:38;96186.75;;;7.80;100.00
69411;BME280;56604;48.652;9.194;2023-12-29T04:52:04;96188.97;;;7.88;100.00
69411;BME280;56604;48.652;9.194;2023-12-29T04:54:29;96195.03;;;7.88;100.00
69411;BME280;56604;48.652;9.194;2023-12-29T04:56:54;96197.53;;;7.83;100.00
69411;BME280;56604;48.652;9.194;2023-12-29T04:59:20;96181.84;;;7.83;100.00
69411;BME280;56604;48.652;9.194;2023-12-29T05:01:45;96197.53;;;7.83;100.00
69411;BME280;56604;48.652;9.194;2023-12-29T05:04:10;96192.44;;;7.77;100.00
69411;BME280;56604;48.652;9.194;2023-12-29T05:06:36;96188.47;;;7.74;100.00
69411;BME280;56604;48.652;9.194;2023-12-29T05:09:01;96183.13;;;7.69;100.00
69411;BME280;56604;48.652;9.194;2023-12-29T05:11:27;96179.06;;;7.61;100.00
69411;BME280;56604;48.652;9.194;2023-12-29T05:13:53;96182.13;;;7.58;100.00
69411;BME280;56604;48.652;9.194;2023-12-29T05:16:18;96181.00;;;7.54;100.00
69411;BME280;56604;48.652;9.194;2023-12-29T05:18:43;96171.00;;;7.51;100.00
69411;BME280;56604;48.652;9.194;2023-12-29T05:21:18;96183.59;;;7.66;100.00
69411;BME280;56604;48.652;9.194;2023-12-29T05:23:44;96181.91;;;7.60;100.00
69411;BME280;56604;48.652;9.194;2023-12-29T05:26:11;96183.25;;;7.62;100.00
69411;BME280;56604;48.652;9.194;2023-12-29T05:28:36;96190.88;;;7.64;100.00
69411;BME280;56604;48.652;9.194;2023-12-29T05:31:01;96188.16;;;7.59;100.00
69411;BME280;56604;48.652;9.194;2023-12-29T05:33:30;96186.69;;;7.51;100.00
69411;BME280;56604;48.652;9.194;2023-12-29T05:35:55;96184.06;;;7.51;100.00
69411;BME280;56604;48.652;9.194;2023-12-29T05:38:20;96190.44;;;7.55;100.00
69411;BME280;56604;48.652;9.194;2023-12-29T05:40:46;96193.50;;;7.64;100.00
69411;BME280;56604;48.652;9.194;2023-12-29T05:43:11;96199.06;;;7.68;100.00
69411;BME280;56604;48.652;9.194;2023-12-29T05:45:36;96196.53;;;7.73;100.00
69411;BME280;56604;48.652;9.194;2023-12-29T05:48:02;96193.47;;;7.76;100.00
69411;BME280;56604;48.652;9.194;2023-12-29T05:50:27;96191.31;;;7.73;100.00
69411;BME280;56604;48.652;9.194;2023-12-29T05:52:53;96190.06;;;7.75;100.00
69411;BME280;56604;48.652;9.194;2023-12-29T05:55:18;96193.00;;;7.79;100.00
69411;BME280;56604;48.652;9.194;2023-12-29T05:57:44;96188.81;;;7.78;100.00
69411;BME280;56604;48.652;9.194;2023-12-29T06:00:10;96198.13;;;7.74;100.00
69411;BME280;56604;48.652;9.194;2023-12-29T06:02:40;96197.59;;;7.72;100.00
69411;BME280;56604;48.652;9.194;2023-12-29T06:05:06;96199.72;;;7.75;100.00
69411;BME280;56604;48.652;9.194;2023-12-29T06:07:32;96196.06;;;7.76;100.00
69411;BME280;56604;48.652;9.194;2023-12-29T06:09:57;96207.69;;;7.80;100.00
69411;BME280;56604;48.652;9.194;2023-12-29T06:12:22;96216.88;;;7.82;100.00
69411;BME280;56604;48.652;9.194;2023-12-29T06:14:47;96211.84;;;7.93;100.00
69411;BME280;56604;48.652;9.194;2023-12-29T06:17:13;96215.81;;;7.95;100.00
69411;BME280;56604;48.652;9.194;2023-12-29T06:19:39;96213.25;;;7.83;100.00
69411;BME280;56604;48.652;9.194;2023-12-29T06:22:04;96207.56;;;7.86;100.00
69411;BME280;56604;48.652;9.194;2023-12-29T06:24:30;96213.00;;;7.85;100.00
69411;BME280;56604;48.652;9.194;2023-12-29T06:26:55;96214.25;;;7.82;100.00
69411;BME280;56604;48.652;9.194;2023-12-29T06:29:20;96208.47;;;7.80;100.00
69411;BME280;56604;48.652;9.194;2023-12-29T06:31:46;96214.50;;;7.81;100.00
69411;BME280;56604;48.652;9.194;2023-12-29T06:34:11;96208.34;;;7.87;100.00
69411;BME280;56604;48.652;9.194;2023-12-29T06:36:36;96201.06;;;7.89;100.00
69411;BME280;56604;48.652;9.194;2023-12-29T06:39:02;96205.63;;;7.82;100.00
69411;BME280;56604;48.652;9.194;2023-12-29T06:41:27;96198.34;;;7.84;100.00
69411;BME280;56604;48.652;9.194;2023-12-29T06:43:52;96194.22;;;7.88;100.00
69411;BME280;56604;48.652;9.194;2023-12-29T06:46:18;96206.28;;;7.89;100.00
69411;BME280;56604;48.652;9.194;2023-12-29T06:48:43;96196.28;;;7.86;100.00
69411;BME280;56604;48.652;9.194;2023-12-29T06:51:09;96196.28;;;7.86;100.00
69411;BME280;56604;48.652;9.194;2023-12-29T06:53:36;96194.00;;;7.89;100.00
69411;BME280;56604;48.652;9.194;2023-12-29T06:56:01;96192.84;;;7.97;100.00
69411;BME280;56604;48.652;9.194;2023-12-29T06:58:27;96190.22;;;7.97;100.00
69411;BME280;56604;48.652;9.194;2023-12-29T07:00:52;96194.41;;;7.98;100.00
69411;BME280;56604;48.652;9.194;2023-12-29T07:03:17;96187.59;;;7.97;100.00
69411;BME280;56604;48.652;9.194;2023-12-29T07:05:43;96197.50;;;7.95;100.00
69411;BME280;56604;48.652;9.194;2023-12-29T07:08:08;96183.47;;;8.01;100.00
69411;BME280;56604;48.652;9.194;2023-12-29T07:10:33;96179.00;;;8.76;100.00
69411;BME280;56604;48.652;9.194;2023-12-29T07:12:59;96181.97;;;8.34;100.00
69411;BME280;56604;48.652;9.194;2023-12-29T07:15:24;96175.59;;;8.59;100.00
69411;BME280;56604;48.652;9.194;2023-12-29T07:17:49;96180.59;;;8.43;100.00
69411;BME280;56604;48.652;9.194;2023-12-29T07:20:15;96181.56;;;8.54;100.00
69411;BME280;56604;48.652;9.194;2023-12-29T07:22:40;96178.94;;;8.54;100.00
69411;BME280;56604;48.652;9.194;2023-12-29T07:25:06;96180.59;;;8.43;100.00
69411;BME280;56604;48.652;9.194;2023-12-29T07:27:32;96178.31;;;8.35;100.00
69411;BME280;56604;48.652;9.194;2023-12-29T07:29:57;96173.31;;;8.33;100.00
69411;BME280;56604;48.652;9.194;2023-12-29T07:32:23;96180.47;;;8.38;100.00
69411;BME280;56604;48.652;9.194;2023-12-29T07:34:48;96184.41;;;8.52;100.00
69411;BME280;56604;48.652;9.194;2023-12-29T07:37:14;96187.69;;;8.60;100.00
69411;BME280;56604;48.652;9.194;2023-12-29T07:39:39;96184.22;;;8.42;100.00
69411;BME280;56604;48.652;9.194;2023-12-29T07:42:05;96178.69;;;8.55;100.00
69411;BME280;56604;48.652;9.194;2023-12-29T07:44:30;96187.13;;;8.58;100.00
69411;BME280;56604;48.652;9.194;2023-12-29T07:46:57;96183.22;;;8.60;100.00
69411;BME280;56604;48.652;9.194;2023-12-29T07:49:22;96179.81;;;8.60;100.00
69411;BME280;56604;48.652;9.194;2023-12-29T07:51:48;96182.97;;;8.62;100.00
69411;BME280;56604;48.652;9.194;2023-12-29T07:54:13;96187.69;;;8.60;100.00
69411;BME280;56604;48.652;9.194;2023-12-29T07:56:39;96188.22;;;8.62;100.00
69411;BME280;56604;48.652;9.194;2023-12-29T07:59:04;96192.44;;;8.63;100.00
69411;BME280;56604;48.652;9.194;2023-12-29T08:01:30;96183.53;;;8.64;100.00
69411;BME280;56604;48.652;9.194;2023-12-29T08:03:55;96186.47;;;8.67;100.00
69411;BME280;56604;48.652;9.194;2023-12-29T08:06:21;96195.59;;;8.65;100.00
69411;BME280;56604;48.652;9.194;2023-12-29T08:08:47;96188.13;;;8.73;100.00
69411;BME280;56604;48.652;9.194;2023-12-29T08:11:16;96191.25;;;8.87;100.00
69411;BME280;56604;48.652;9.194;2023-12-29T08:13:43;96197.53;;;8.86;100.00
69411;BME280;56604;48.652;9.194;2023-12-29T08:16:09;96200.28;;;8.96;100.00
69411;BME280;56604;48.652;9.194;2023-12-29T08:18:34;96201.50;;;9.06;100.00
69411;BME280;56604;48.652;9.194;2023-12-29T08:21:00;96199.66;;;9.06;100.00
69411;BME280;56604;48.652;9.194;2023-12-29T08:23:25;96194.41;;;9.06;100.00
69411;BME280;56604;48.652;9.194;2023-12-29T08:25:51;96191.22;;;9.21;100.00
69411;BME280;56604;48.652;9.194;2023-12-29T08:28:17;96196.84;;;9.30;100.00
69411;BME280;56604;48.652;9.194;2023-12-29T08:30:43;96197.22;;;9.38;100.00
69411;BME280;56604;48.652;9.194;2023-12-29T08:33:11;96197.44;;;9.54;100.00
69411;BME280;56604;48.652;9.194;2023-12-29T08:35:37;96195.06;;;9.74;100.00
69411;BME280;56604;48.652;9.194;2023-12-29T08:38:03;96200.00;;;9.71;100.00
69411;BME280;56604;48.652;9.194;2023-12-29T08:40:28;96201.63;;;9.55;100.00
69411;BME280;56604;48.652;9.194;2023-12-29T08:42:54;96196.69;;;9.80;100.00
69411;BME280;56604;48.652;9.194;2023-12-29T08:45:20;96199.06;;;10.04;100.00
69411;BME280;56604;48.652;9.194;2023-12-29T08:47:45;96212.13;;;9.99;98.15
69411;BME280;56604;48.652;9.194;2023-12-29T08:50:10;96199.41;;;10.34;98.13
69411;BME280;56604;48.652;9.194;2023-12-29T08:52:36;96204.94;;;10.11;97.40
69411;BME280;56604;48.652;9.194;2023-12-29T08:55:01;96203.44;;;10.20;98.38
69411;BME280;56604;48.652;9.194;2023-12-29T08:57:26;96201.28;;;9.90;97.90
69411;BME280;56604;48.652;9.194;2023-12-29T08:59:52;96204.59;;;10.07;97.01
69411;BME280;56604;48.652;9.194;2023-12-29T09:02:17;96200.75;;;10.15;97.19
69411;BME280;56604;48.652;9.194;2023-12-29T09:04:43;96204.88;;;10.06;97.37
69411;BME280;56604;48.652;9.194;2023-12-29T09:07:09;96203.72;;;9.97;98.08
69411;BME280;56604;48.652;9.194;2023-12-29T09:09:34;96210.31;;;9.77;98.29
69411;BME280;56604;48.652;9.194;2023-12-29T09:12:00;96211.78;;;9.68;98.75
69411;BME280;56604;48.652;9.194;2023-12-29T09:14:25;96216.47;;;9.66;99.77
69411;BME280;56604;48.652;9.194;2023-12-29T09:16:50;96209.59;;;9.60;100.00
69411;BME280;56604;48.652;9.194;2023-12-29T09:19:16;96205.69;;;9.62;100.00
69411;BME280;56604;48.652;9.194;2023-12-29T09:21:41;96204.81;;;9.57;100.00
69411;BME280;56604;48.652;9.194;2023-12-29T09:24:07;96206.22;;;9.64;100.00
69411;BME280;56604;48.652;9.194;2023-12-29T09:26:32;96212.38;;;9.75;100.00
69411;BME280;56604;48.652;9.194;2023-12-29T09:28:58;96218.13;;;9.72;100.00
69411;BME280;56604;48.652;9.194;2023-12-29T09:31:24;96220.81;;;9.77;100.00
69411;BME280;56604;48.652;9.194;2023-12-29T09:33:49;96213.50;;;9.79;99.71
69411;BME280;56604;48.652;9.194;2023-12-29T09:36:14;96217.81;;;9.68;99.86
69411;BME280;56604;48.652;9.194;2023-12-29T09:38:39;96223.03;;;9.85;99.47
69411;BME280;56604;48.652;9.194;2023-12-29T09:41:11;96227.44;;;10.02;98.89
69411;BME280;56604;48.652;9.194;2023-12-29T09:43:40;96228.09;;;9.92;99.40
69411;BME280;56604;48.652;9.194;2023-12-29T09:46:07;96234.75;;;10.00;99.08
69411;BME280;56604;48.652;9.194;2023-12-29T09:48:34;96225.16;;;9.88;98.94
69411;BME280;56604;48.652;9.194;2023-12-29T09:51:02;96227.28;;;9.91;99.77
69411;BME280;56604;48.652;9.194;2023-12-29T09:53:28;96233.25;;;9.87;99.93
69411;BME280;56604;48.652;9.194;2023-12-29T09:55:57;96234.91;;;9.93;99.36
69411;BME280;56604;48.652;9.194;2023-12-29T09:58:25;96234.53;;;9.84;100.00
69411;BME280;56604;48.652;9.194;2023-12-29T10:00:51;96225.88;;;9.84;99.61
69411;BME280;56604;48.652;9.194;2023-12-29T10:03:16;96244.69;;;9.76;100.00
69411;BME280;56604;48.652;9.194;2023-12-29T10:05:43;96227.97;;;9.82;99.71
69411;BME280;56604;48.652;9.194;2023-12-29T10:08:09;96227.69;;;9.61;100.00
69411;BME280;56604;48.652;9.194;2023-12-29T10:10:36;96228.63;;;9.72;100.00
69411;BME280;56604;48.652;9.194;2023-12-29T10:13:04;96217.72;;;9.80;100.00
69411;BME280;56604;48.652;9.194;2023-12-29T10:15:42;96216.09;;;10.01;100.00
69411;BME280;56604;48.652;9.194;2023-12-29T10:18:28;96224.31;;;10.05;100.00
69411;BME280;56604;48.652;9.194;2023-12-29T10:21:01;96222.44;;;10.27;99.04
69411;BME280;56604;48.652;9.194;2023-12-29T10:23:36;96214.31;;;10.83;96.72
69411;BME280;56604;48.652;9.194;2023-12-29T10:26:03;96217.91;;;11.09;93.38
69411;BME280;56604;48.652;9.194;2023-12-29T10:28:31;96207.03;;;11.33;91.44
69411;BME280;56604;48.652;9.194;2023-12-29T10:30:57;96197.72;;;11.62;89.37
69411;BME280;56604;48.652;9.194;2023-12-29T10:33:22;96190.69;;;11.78;86.80
69411;BME280;56604;48.652;9.194;2023-12-29T10:36:03;96194.81;;;11.16;88.06
69411;BME280;56604;48.652;9.194;2023-12-29T10:38:30;96192.91;;;11.07;89.70
69411;BME280;56604;48.652;9.194;2023-12-29T10:41:12;96191.41;;;11.21;88.95
69411;BME280;56604;48.652;9.194;2023-12-29T10:43:39;96183.00;;;11.19;87.61
69411;BME280;56604;48.652;9.194;2023-12-29T10:46:09;96178.63;;;11.40;87.52
69411;BME280;56604;48.652;9.194;2023-12-29T10:48:35;96183.53;;;11.74;85.33
69411;BME280;56604;48.652;9.194;2023-12-29T10:51:01;96177.78;;;11.82;85.17
69411;BME280;56604;48.652;9.194;2023-12-29T10:53:38;96179.19;;;11.42;84.98
69411;BME280;56604;48.652;9.194;2023-12-29T10:56:04;96182.94;;;11.56;86.13
69411;BME280;56604;48.652;9.194;2023-12-29T10:58:30;96169.50;;;11.58;84.89
69411;BME280;56604;48.652;9.194;2023-12-29T11:00:56;96168.91;;;11.40;84.56
69411;BME280;56604;48.652;9.194;2023-12-29T11:03:22;96159.34;;;11.82;83.67
69411;BME280;56604;48.652;9.194;2023-12-29T11:05:48;96158.84;;;11.85;81.96
69411;BME280;56604;48.652;9.194;2023-12-29T11:08:18;96157.56;;;11.98;81.65
69411;BME280;56604;48.652;9.194;2023-12-29T11:10:44;96156.25;;;11.95;81.16
69411;BME280;56604;48.652;9.194;2023-12-29T11:13:13;96152.19;;;11.67;82.13
69411;BME280;56604;48.652;9.194;2023-12-29T11:15:43;96149.28;;;11.68;82.32
69411;BME280;56604;48.652;9.194;2023-12-29T11:18:13;96134.38;;;11.95;80.54
69411;BME280;56604;48.652;9.194;2023-12-29T11:20:38;96136.75;;;11.96;80.95
69411;BME280;56604;48.652;9.194;2023-12-29T11:23:05;96136.78;;;12.01;77.62
69411;BME280;56604;48.652;9.194;2023-12-29T11:25:32;96153.09;;;12.03;79.23
69411;BME280;56604;48.652;9.194;2023-12-29T11:27:58;96131.50;;;12.01;78.79
69411;BME280;56604;48.652;9.194;2023-12-29T11:30:26;96139.41;;;12.06;78.57
69411;BME280;56604;48.652;9.194;2023-12-29T11:32:56;96141.53;;;12.14;78.96
69411;BME280;56604;48.652;9.194;2023-12-29T11:38:26;96142.72;;;11.71;78.97
69411;BME280;56604;48.652;9.194;2023-12-29T11:41:05;96152.47;;;11.70;78.93
69411;BME280;56604;48.652;9.194;2023-12-29T11:43:34;96135.50;;;11.46;79.47
69411;BME280;56604;48.652;9.194;2023-12-29T11:46:00;96138.69;;;11.48;79.74
69411;BME280;56604;48.652;9.194;2023-12-29T11:48:54;96133.88;;;11.35;78.57
69411;BME280;56604;48.652;9.194;2023-12-29T11:51:34;96127.75;;;11.24;78.21
69411;BME280;56604;48.652;9.194;2023-12-29T11:54:03;96128.56;;;11.30;78.11
69411;BME280;56604;48.652;9.194;2023-12-29T11:56:40;96132.84;;;11.36;78.71
69411;BME280;56604;48.652;9.194;2023-12-29T11:59:19;96128.63;;;11.40;79.09
69411;BME280;56604;48.652;9.194;2023-12-29T12:01:50;96130.22;;;11.41;78.63
69411;BME280;56604;48.652;9.194;2023-12-29T12:04:38;96123.91;;;11.42;78.46
69411;BME280;56604;48.652;9.194;2023-12-29T12:07:08;96120.28;;;11.53;77.61
69411;BME280;56604;48.652;9.194;2023-12-29T12:09:34;96128.16;;;11.48;77.68
69411;BME280;56604;48.652;9.194;2023-12-29T12:12:01;96122.13;;;11.58;78.45
69411;BME280;56604;48.652;9.194;2023-12-29T12:14:53;96127.13;;;11.59;78.47
69411;BME280;56604;48.652;9.194;2023-12-29T12:17:33;96124.78;;;11.63;77.01
69411;BME280;56604;48.652;9.194;2023-12-29T12:20:08;96127.13;;;11.59;76.86
69411;BME280;56604;48.652;9.194;2023-12-29T12:22:35;96116.88;;;11.63;76.56
69411;BME280;56604;48.652;9.194;2023-12-29T12:25:01;96118.69;;;11.57;77.80
69411;BME280;56604;48.652;9.194;2023-12-29T12:27:28;96117.56;;;11.38;77.88
69411;BME280;56604;48.652;9.194;2023-12-29T12:29:57;96118.06;;;11.35;78.59
69411;BME280;56604;48.652;9.194;2023-12-29T12:32:25;96110.41;;;11.23;79.42
69411;BME280;56604;48.652;9.194;2023-12-29T12:34:51;96109.06;;;11.20;78.85
69411;BME280;56604;48.652;9.194;2023-12-29T12:37:23;96101.16;;;11.20;78.80
69411;BME280;56604;48.652;9.194;2023-12-29T12:39:49;96091.66;;;11.14;78.51
69411;BME280;56604;48.652;9.194;2023-12-29T12:42:16;96092.47;;;11.15;79.95
69411;BME280;56604;48.652;9.194;2023-12-29T12:44:56;96087.91;;;11.00;78.46
69411;BME280;56604;48.652;9.194;2023-12-29T12:48:02;96090.03;;;11.03;78.75
69411;BME280;56604;48.652;9.194;2023-12-29T12:50:29;96085.28;;;11.00;78.61
69411;BME280;56604;48.652;9.194;2023-12-29T12:52:56;96087.28;;;10.83;79.75
69411;BME280;56604;48.652;9.194;2023-12-29T12:55:23;96090.47;;;10.90;79.51
69411;BME280;56604;48.652;9.194;2023-12-29T12:57:48;96081.84;;;10.94;78.69
69411;BME280;56604;48.652;9.194;2023-12-29T13:00:14;96083.72;;;10.99;78.93
69411;BME280;56604;48.652;9.194;2023-12-29T13:02:41;96083.19;;;11.02;78.05
69411;BME280;56604;48.652;9.194;2023-12-29T13:05:09;96094.72;;;10.91;77.87
69411;BME280;56604;48.652;9.194;2023-12-29T13:07:36;96092.47;;;11.15;79.30